Manistique, Schoolcraft County Airport (KISQ)

NameSchoolcraft County Airport
CityManistique
CountryUnited States
ICAOKISQ
IATAISQ
Altitude208 m
CoordinatesGoogle Map
Live Air TrafficLiveATC.net
METARKISQ 200056Z AUTO 23003KT 10SM CLR M09/M20 A3044 RMK AO2 T10861200
2019-02-20 00:56:00 Wind: Southwest (230°) 1.54 m/s - Visibility: 16093.4 m - Temperature: -9 °C - Dew point: -20 °C - Humidity: 40.9% - Pressure: 1030.82 hPa

Sorry, no flights used the airport in this database.